createdAt,value
2022-08-08T00:00:59.604Z,15.24
2022-08-08T00:05:43.550Z,15.21
2022-08-08T00:11:46.901Z,15.23
2022-08-08T00:17:47.947Z,14.97
2022-08-08T00:22:52.493Z,15.12
2022-08-08T00:27:58.495Z,15.54
2022-08-08T00:33:08.651Z,15.59
2022-08-08T00:38:32.070Z,15.82
2022-08-08T00:44:02.903Z,16.00
2022-08-08T00:49:21.931Z,16.03
2022-08-08T00:54:45.827Z,16.04
2022-08-08T00:59:52.447Z,15.91
2022-08-08T01:05:29.102Z,15.84
2022-08-08T01:11:13.356Z,15.73
2022-08-08T01:16:35.360Z,15.72
2022-08-08T01:22:13.225Z,15.62
2022-08-08T01:27:47.260Z,15.57
2022-08-08T01:33:23.924Z,15.69
2022-08-08T01:39:06.717Z,15.68
2022-08-08T01:44:39.127Z,15.67
2022-08-08T01:50:21.093Z,15.68
2022-08-08T01:56:28.987Z,15.57
2022-08-08T02:02:05.021Z,15.03
2022-08-08T02:07:49.056Z,14.87
2022-08-08T02:13:53.140Z,15.05
2022-08-08T02:19:26.672Z,15.30
2022-08-08T02:24:57.688Z,15.05
2022-08-08T02:30:20.817Z,15.21
2022-08-08T02:35:28.222Z,15.38
2022-08-08T02:40:37.795Z,15.39
2022-08-08T02:46:14.203Z,15.20
2022-08-08T02:51:55.439Z,15.06
2022-08-08T02:57:23.979Z,14.85
2022-08-08T03:02:39.658Z,14.65
2022-08-08T03:08:09.519Z,14.56
2022-08-08T03:15:53.463Z,14.21
2022-08-08T03:19:17.790Z,14.08
2022-08-08T03:24:23.985Z,14.14
2022-08-08T03:29:51.412Z,14.42
2022-08-08T03:34:53.844Z,14.56
2022-08-08T03:40:00.621Z,15.09
2022-08-08T03:46:04.827Z,15.71
2022-08-08T03:50:48.758Z,16.10
2022-08-08T03:55:58.261Z,16.88
2022-08-08T04:02:12.698Z,18.42
2022-08-08T04:06:33.120Z,19.25
2022-08-08T04:11:58.865Z,20.19
2022-08-08T04:17:46.426Z,19.86
2022-08-08T04:22:45.317Z,20.51
2022-08-08T04:28:34.456Z,20.62
2022-08-08T04:33:17.103Z,21.71
2022-08-08T04:38:21.145Z,22.13
2022-08-08T04:43:31.223Z,22.29
2022-08-08T04:48:35.656Z,22.66
2022-08-08T04:54:36.022Z,22.95
2022-08-08T04:59:01.007Z,23.30
2022-08-08T05:04:10.541Z,23.53
2022-08-08T05:09:19.002Z,23.96
2022-08-08T05:14:23.160Z,23.89
2022-08-08T05:20:11.422Z,24.40
2022-08-08T05:25:02.938Z,22.83
2022-08-08T05:30:06.863Z,23.24
2022-08-08T05:35:23.491Z,24.37
2022-08-08T05:40:30.761Z,25.19
2022-08-08T05:45:43.161Z,25.57
2022-08-08T05:50:59.065Z,25.95
2022-08-08T05:56:16.936Z,26.05
2022-08-08T06:01:56.696Z,25.70
2022-08-08T06:06:49.244Z,24.75
2022-08-08T06:11:53.759Z,25.27
2022-08-08T06:17:02.819Z,25.19
2022-08-08T06:22:33.327Z,24.71
2022-08-08T06:27:48.969Z,25.17
2022-08-08T06:32:56.484Z,25.90
2022-08-08T06:38:13.990Z,26.08
2022-08-08T06:43:30.792Z,27.00
2022-08-08T06:48:42.446Z,26.93
2022-08-08T06:53:51.031Z,26.10
2022-08-08T06:59:09.976Z,26.09
2022-08-08T07:04:38.646Z,26.03
2022-08-08T07:09:59.427Z,25.83
2022-08-08T07:15:23.108Z,25.66
2022-08-08T07:20:45.865Z,25.44
2022-08-08T07:25:55.559Z,25.29
2022-08-08T07:31:00.628Z,24.73
2022-08-08T07:36:05.629Z,24.85
2022-08-08T07:41:23.584Z,25.80
2022-08-08T07:46:30.783Z,26.55
2022-08-08T07:51:53.612Z,26.68
2022-08-08T07:57:30.154Z,25.81
2022-08-08T08:03:23.325Z,26.37
2022-08-08T08:08:39.465Z,26.52
2022-08-08T08:14:07.472Z,26.12
2022-08-08T08:19:18.084Z,25.42
2022-08-08T08:24:30.389Z,25.93
2022-08-08T08:29:35.673Z,26.34
2022-08-08T08:34:48.467Z,26.65
2022-08-08T08:40:00.995Z,26.60
2022-08-08T08:45:23.030Z,27.36
2022-08-08T08:50:40.844Z,27.70
2022-08-08T08:55:48.929Z,26.99
2022-08-08T09:01:09.026Z,26.46
2022-08-08T09:06:28.290Z,26.59
2022-08-08T09:11:47.227Z,26.14
2022-08-08T09:16:56.314Z,25.93
2022-08-08T09:22:06.371Z,25.58
2022-08-08T09:27:15.034Z,25.32
2022-08-08T09:33:12.110Z,25.46
2022-08-08T09:38:17.829Z,25.47
2022-08-08T09:43:40.613Z,26.03
2022-08-08T09:48:54.857Z,26.58
2022-08-08T09:54:08.561Z,27.35
2022-08-08T09:59:57.153Z,27.56
2022-08-08T10:05:15.148Z,27.51
2022-08-08T10:10:36.786Z,27.38
2022-08-08T10:15:39.560Z,27.15
2022-08-08T10:20:57.521Z,27.31
2022-08-08T10:26:04.414Z,27.06
2022-08-08T10:31:47.361Z,27.61
2022-08-08T10:36:53.195Z,27.20
2022-08-08T10:42:16.760Z,27.89
2022-08-08T10:47:21.563Z,28.20
2022-08-08T10:52:31.028Z,28.68
2022-08-08T10:57:53.210Z,28.87
2022-08-08T11:02:57.183Z,29.10
2022-08-08T11:08:31.277Z,28.50
2022-08-08T11:13:28.540Z,27.57
2022-08-08T11:18:35.191Z,27.89
2022-08-08T11:23:41.862Z,27.69
2022-08-08T11:28:45.791Z,26.59
2022-08-08T11:34:22.739Z,26.54
2022-08-08T11:39:17.716Z,26.59
2022-08-08T11:44:29.048Z,26.31
2022-08-08T11:49:32.448Z,26.52
2022-08-08T11:54:38.042Z,26.33
2022-08-08T12:00:01.306Z,26.43
2022-08-08T12:05:14.727Z,26.62
2022-08-08T12:10:19.482Z,26.63
2022-08-08T12:15:33.770Z,27.38
2022-08-08T12:20:45.758Z,27.45
2022-08-08T12:25:52.779Z,27.68
2022-08-08T12:31:09.664Z,27.80
2022-08-08T12:36:16.271Z,27.95
2022-08-08T12:41:33.984Z,28.36
2022-08-08T12:46:59.289Z,27.94
2022-08-08T12:52:04.959Z,27.97
2022-08-08T12:57:26.975Z,28.32
2022-08-08T13:02:37.929Z,28.19
2022-08-08T13:08:03.265Z,27.78
2022-08-08T13:13:08.049Z,27.73
2022-08-08T13:18:13.776Z,27.68
2022-08-08T13:23:35.913Z,27.82
2022-08-08T13:28:42.335Z,28.29
2022-08-08T13:33:51.217Z,27.76
2022-08-08T13:39:00.043Z,27.81
2022-08-08T13:44:03.626Z,27.92
2022-08-08T13:50:38.418Z,27.73
2022-08-08T13:54:49.330Z,27.52
2022-08-08T13:59:52.581Z,27.32
2022-08-08T14:05:09.310Z,27.40
2022-08-08T14:10:33.396Z,27.18
2022-08-08T14:15:50.209Z,27.24
2022-08-08T14:21:02.390Z,26.61
2022-08-08T14:26:10.858Z,26.65
2022-08-08T14:31:23.527Z,26.77
2022-08-08T14:36:41.245Z,26.80
2022-08-08T14:42:07.633Z,27.03
2022-08-08T14:47:16.649Z,27.37
2022-08-08T14:52:24.070Z,27.49
2022-08-08T14:58:05.845Z,27.33
2022-08-08T15:03:01.513Z,27.36
2022-08-08T15:08:22.466Z,27.20
2022-08-08T15:13:41.097Z,27.03
2022-08-08T15:18:58.528Z,26.46
2022-08-08T15:24:01.246Z,26.20
2022-08-08T15:29:06.673Z,25.95
2022-08-08T15:34:18.586Z,25.88
2022-08-08T15:39:38.115Z,25.68
2022-08-08T15:44:42.772Z,25.48
2022-08-08T15:49:47.869Z,25.36
2022-08-08T15:54:52.642Z,25.40
2022-08-08T16:00:12.066Z,25.31
2022-08-08T16:05:18.909Z,25.29
2022-08-08T16:13:10.366Z,25.32
2022-08-08T16:15:58.772Z,25.24
2022-08-08T16:21:26.198Z,25.00
2022-08-08T16:26:33.268Z,24.76
2022-08-08T16:31:42.174Z,25.08
2022-08-08T16:36:51.575Z,25.01
2022-08-08T16:42:00.836Z,25.04
2022-08-08T16:47:21.865Z,25.04
2022-08-08T16:55:23.146Z,24.85
2022-08-08T16:58:14.025Z,24.87
2022-08-08T17:03:25.221Z,24.70
2022-08-08T17:08:42.740Z,24.68
2022-08-08T17:13:49.970Z,24.56
2022-08-08T17:19:03.647Z,24.64
2022-08-08T17:24:10.672Z,24.38
2022-08-08T17:29:34.072Z,24.30
2022-08-08T17:35:52.832Z,24.00
2022-08-08T17:40:13.085Z,23.93
2022-08-08T17:45:22.623Z,23.88
2022-08-08T17:50:27.000Z,23.91
2022-08-08T17:56:06.353Z,23.78
2022-08-08T18:00:56.157Z,23.72
2022-08-08T18:06:00.031Z,23.75
2022-08-08T18:11:16.984Z,23.58
2022-08-08T18:16:23.343Z,23.58
2022-08-08T18:21:58.864Z,23.45
2022-08-08T18:26:56.596Z,23.35
2022-08-08T18:32:00.034Z,23.33
2022-08-08T18:37:08.364Z,23.12
2022-08-08T18:42:16.371Z,23.10
2022-08-08T18:47:19.432Z,23.07
2022-08-08T18:52:23.498Z,22.93
2022-08-08T18:57:26.067Z,22.83
2022-08-08T19:02:30.042Z,22.75
2022-08-08T19:07:33.381Z,22.73
2022-08-08T19:12:44.835Z,22.63
2022-08-08T19:18:32.283Z,22.57
2022-08-08T19:23:18.648Z,22.38
2022-08-08T19:28:24.161Z,22.44
2022-08-08T19:33:27.994Z,22.43
2022-08-08T19:38:50.766Z,22.40
2022-08-08T19:44:03.021Z,22.24
2022-08-08T19:49:07.007Z,22.23
2022-08-08T19:54:11.986Z,22.21
2022-08-08T19:59:14.507Z,22.21
2022-08-08T20:04:21.386Z,21.88
2022-08-08T20:09:30.030Z,22.00
2022-08-08T20:14:41.895Z,22.01
2022-08-08T20:19:45.386Z,21.78
2022-08-08T20:24:50.269Z,21.96
2022-08-08T20:30:00.451Z,21.85
2022-08-08T20:35:04.470Z,21.68
2022-08-08T20:40:08.915Z,21.72
2022-08-08T20:45:12.217Z,21.77
2022-08-08T20:50:15.474Z,21.73
2022-08-08T20:55:25.584Z,21.52
2022-08-08T21:00:28.637Z,21.66
2022-08-08T21:05:33.082Z,21.55
2022-08-08T21:10:52.378Z,21.50
2022-08-08T21:16:03.868Z,21.49
2022-08-08T21:21:20.709Z,21.35
2022-08-08T21:26:39.121Z,21.33
2022-08-08T21:31:53.451Z,21.27
2022-08-08T21:37:05.287Z,21.32
2022-08-08T21:42:13.608Z,21.27
2022-08-08T21:48:03.731Z,21.28
2022-08-08T21:54:33.837Z,21.36
2022-08-08T21:58:05.668Z,21.39
2022-08-08T22:03:17.854Z,21.36
2022-08-08T22:08:24.339Z,21.30
2022-08-08T22:13:26.956Z,21.26
2022-08-08T22:18:52.668Z,21.21
2022-08-08T22:23:55.945Z,21.14
2022-08-08T22:29:05.154Z,21.13
2022-08-08T22:34:23.661Z,21.12
2022-08-08T22:39:45.650Z,21.15
2022-08-08T22:44:54.124Z,21.16
2022-08-08T22:50:00.977Z,21.12
2022-08-08T22:55:05.932Z,20.80
2022-08-08T23:00:14.012Z,20.90
2022-08-08T23:05:21.318Z,20.90
2022-08-08T23:10:25.580Z,20.90
2022-08-08T23:16:38.720Z,20.87
2022-08-08T23:20:54.783Z,20.92
2022-08-08T23:25:57.829Z,20.86
2022-08-08T23:31:00.393Z,20.88
2022-08-08T23:36:08.409Z,20.88
2022-08-08T23:41:17.546Z,20.84
2022-08-08T23:49:02.099Z,20.81
2022-08-08T23:52:06.750Z,20.82
2022-08-08T23:57:25.595Z,20.78
